首页
METAR-TAF:

METAR-TAF

机场 :

伊萬諾-弗蘭科夫斯克國際機場

伊万诺-弗兰科夫斯克, 乌克兰

纬度: 48-53-03N, 经度: 024-41-10E, 海拔: 280米

当前天气观测

该预报发布于3小时和2分钟前的19:30 UTC
静风
温度 19°C
湿度 83%
气压 1018 hPa
能见度10公里或以上
1500米以下无云,无积雨云

METAR: UKLI 051930Z 00000MPS CAVOK 19/16 Q1018 NOSIG

时间: 01:32 (22:32 UTC)

预报

该预报发布于5小时和31分钟前的17:01 UTC
预报有效从05日的 18点(UTC)到 06日的 03点(UTC)
风速2节,风向多变
能见度10公里或以上
散云层高于3000英尺

TAF: UKLI 051701Z 0518/0603 VRB01MPS 9999 SCT030

超过4000个机场的气象观测和天气预报(METAR&TAF报告)。

可查询的气象台以黄色和红色小点在地图上表示。

将鼠标移到小点上方,可查看气象台名称。

然后点击查看天气观测和预报。

如需切换地图:点击带黑十字的绿色按钮放大地图;点击带横线的绿色按钮缩小地图;或者点击绿色箭头查看邻近地区的地图。


METAR-TAF: